Time;durP1;ratioP1;P1;durP2;ratioP2;P2;SDS_P1;SDS_P2;PMS_P1;PMS_P2;Temp;Humidity;BMP_temperature;BMP_pressure;BME280_temperature;BME280_humidity;BME280_pressure;Samples;Min_cycle;Max_cycle;Signal;HPM_P1;HPM_P2
2023/09/28 00:03:27;;;;;;;15.73;10.23;;;16.30;99.90;;;;;;20830745;28;20250;-63
2023/09/28 00:13:29;;;;;;;12.07;9.50;;;16.30;99.90;;;;;;20830545;28;20210;-64
2023/09/28 00:23:32;;;;;;;12.33;9.40;;;16.10;99.90;;;;;;20829612;28;20265;-63
2023/09/28 00:33:33;;;;;;;14.30;8.60;;;16.00;99.90;;;;;;20829071;28;20759;-63
2023/09/28 00:43:35;;;;;;;12.73;9.03;;;16.00;99.90;;;;;;20829195;28;20233;-63
2023/09/28 00:53:37;;;;;;;12.33;9.77;;;15.90;99.90;;;;;;20828563;28;20215;-63
2023/09/28 01:03:39;;;;;;;18.20;9.57;;;15.80;99.90;;;;;;20829871;28;20243;-64
2023/09/28 01:13:41;;;;;;;15.63;9.43;;;15.70;99.90;;;;;;20843905;28;20207;-66
2023/09/28 01:23:43;;;;;;;18.17;10.73;;;15.80;99.90;;;;;;20842887;28;20233;-63
2023/09/28 01:33:45;;;;;;;11.67;9.20;;;15.70;99.90;;;;;;20842110;28;20719;-63
2023/09/28 01:43:47;;;;;;;11.40;8.90;;;15.70;99.90;;;;;;20841682;28;20635;-63
2023/09/28 01:53:48;;;;;;;11.40;7.90;;;15.70;99.90;;;;;;20840711;28;20684;-63
2023/09/28 02:03:50;;;;;;;12.50;8.77;;;15.50;99.90;;;;;;20839702;28;20691;-66
2023/09/28 02:13:52;;;;;;;13.77;9.70;;;15.50;99.90;;;;;;20839386;28;20236;-68
2023/09/28 02:23:54;;;;;;;10.97;8.90;;;15.50;99.90;;;;;;20837936;28;20339;-65
2023/09/28 02:33:57;;;;;;;15.87;8.70;;;15.50;99.90;;;;;;20837581;28;20669;-65
2023/09/28 02:43:59;;;;;;;12.83;9.00;;;15.30;99.90;;;;;;20837507;28;20236;-64
2023/09/28 02:54:01;;;;;;;13.03;8.80;;;15.30;99.90;;;;;;20835939;28;20201;-63
2023/09/28 03:04:03;;;;;;;17.03;9.93;;;15.20;99.90;;;;;;20835046;28;20323;-64
2023/09/28 03:14:05;;;;;;;13.97;9.87;;;15.20;99.90;;;;;;20834425;28;20212;-64
2023/09/28 03:24:08;;;;;;;14.37;9.17;;;15.20;99.90;;;;;;20833825;28;20232;-64
2023/09/28 03:34:10;;;;;;;13.97;9.57;;;15.10;99.90;;;;;;20832010;28;20335;-64
2023/09/28 03:44:11;;;;;;;15.30;10.27;;;15.10;99.90;;;;;;20831819;28;20335;-64
2023/09/28 03:54:13;;;;;;;15.97;9.47;;;15.00;99.90;;;;;;20831603;28;20258;-64
2023/09/28 04:04:15;;;;;;;14.60;10.23;;;14.90;99.90;;;;;;20830386;28;20331;-63
2023/09/28 04:14:17;;;;;;;13.20;9.93;;;15.00;99.90;;;;;;20830126;28;20204;-63
2023/09/28 04:24:18;;;;;;;18.67;10.33;;;14.90;99.90;;;;;;20830055;28;20294;-64
2023/09/28 04:34:20;;;;;;;13.33;10.17;;;14.80;99.90;;;;;;20829168;28;20242;-64
2023/09/28 04:44:23;;;;;;;15.67;10.53;;;14.70;99.90;;;;;;20839985;28;20327;-63
2023/09/28 04:54:25;;;;;;;18.90;11.23;;;14.80;99.90;;;;;;20846368;28;20200;-64
2023/09/28 05:04:26;;;;;;;15.03;10.50;;;14.90;99.90;;;;;;20881637;28;20235;-63
2023/09/28 05:14:28;;;;;;;18.57;10.73;;;14.90;99.90;;;;;;20897752;28;20204;-64
2023/09/28 05:24:30;;;;;;;19.60;11.77;;;14.80;99.90;;;;;;20841292;28;20244;-67
2023/09/28 05:34:32;;;;;;;20.23;12.57;;;14.90;99.90;;;;;;20840708;28;20232;-63
2023/09/28 05:44:33;;;;;;;25.57;13.03;;;14.90;99.90;;;;;;20840878;28;20326;-62
2023/09/28 05:54:35;;;;;;;32.87;13.17;;;14.90;99.90;;;;;;20840061;28;20572;-64
2023/09/28 06:04:37;;;;;;;18.03;12.40;;;14.90;99.90;;;;;;20839231;28;20240;-68
2023/09/28 06:14:39;;;;;;;17.13;11.67;;;15.00;99.90;;;;;;20838685;28;20657;-67
2023/09/28 06:24:40;;;;;;;23.27;12.37;;;15.10;99.90;;;;;;20838256;28;20290;-62
2023/09/28 06:34:44;;;;;;;24.90;12.53;;;15.20;99.90;;;;;;20837302;28;20281;-62
2023/09/28 06:44:45;;;;;;;20.07;11.73;;;15.20;99.90;;;;;;20836368;28;20243;-63
2023/09/28 06:54:47;;;;;;;18.73;11.80;;;15.70;99.90;;;;;;20835432;28;20299;-63
2023/09/28 07:04:49;;;;;;;14.80;10.60;;;16.10;99.90;;;;;;20831783;28;20476;-63
2023/09/28 07:14:51;;;;;;;15.77;12.30;;;16.20;99.90;;;;;;20833625;28;20269;-65
2023/09/28 07:24:55;;;;;;;17.37;11.47;;;16.30;99.90;;;;;;20833402;28;20605;-64
2023/09/28 07:34:57;;;;;;;17.00;12.30;;;16.30;99.90;;;;;;20831971;28;20247;-64
2023/09/28 07:44:59;;;;;;;15.83;11.70;;;16.60;99.90;;;;;;20831424;28;20247;-63
2023/09/28 07:55:01;;;;;;;17.67;12.00;;;16.80;99.90;;;;;;20830805;28;20675;-64
2023/09/28 08:05:03;;;;;;;17.77;13.60;;;16.80;99.90;;;;;;20830180;28;20231;-63
2023/09/28 08:15:06;;;;;;;16.30;12.53;;;17.10;99.90;;;;;;20829274;28;20678;-64
2023/09/28 08:25:14;;;;;;;20.43;12.77;;;17.40;99.90;;;;;;20829212;28;20590;-63
2023/09/28 08:35:15;;;;;;;13.23;10.70;;;17.70;99.90;;;;;;20828274;28;20233;-63
2023/09/28 08:45:18;;;;;;;19.27;10.93;;;18.00;99.90;;;;;;20827759;28;20247;-64
2023/09/28 08:55:21;;;;;;;17.93;11.20;;;18.30;99.90;;;;;;20828147;28;20211;-65
2023/09/28 09:05:22;;;;;;;15.00;8.60;;;18.60;99.90;;;;;;20827586;28;20238;-64
2023/09/28 09:15:24;;;;;;;14.63;8.80;;;18.80;99.90;;;;;;20826943;28;20208;-63
2023/09/28 09:25:40;;;;;;;28.97;9.00;;;;;;;;;;20829851;28;20240;-63
2023/09/28 09:35:43;;;;;;;25.10;8.03;;;;;;;;;;20841524;28;20236;-63
2023/09/28 09:45:47;;;;;;;14.43;6.60;;;;;;;;;;20823268;28;20714;-64
2023/09/28 09:55:50;;;;;;;12.30;6.73;;;;;;;;;;20840459;28;20215;-67
2023/09/28 10:06:01;;;;;;;30.67;14.40;;;;;;;;;;20839484;28;20622;-64
2023/09/28 10:16:04;;;;;;;24.17;11.50;;;;;;;;;;20839049;28;20291;-63
2023/09/28 10:26:14;;;;;;;27.10;10.93;;;;;;;;;;20838393;28;20315;-63
2023/09/28 10:36:17;;;;;;;23.73;7.50;;;;;;;;;;20835143;28;20231;-69
2023/09/28 10:46:19;;;;;;;13.00;5.50;;;;;;;;;;20836260;28;20236;-65
2023/09/28 10:56:21;;;;;;;12.70;6.00;;;;;;;;;;20835982;28;20213;-64
2023/09/28 11:06:24;;;;;;;13.03;6.03;;;;;;;;;;20834750;28;20236;-64
2023/09/28 11:16:27;;;;;;;8.03;5.37;;;;;;;;;;20833921;28;20226;-64
2023/09/28 11:26:30;;;;;;;8.13;5.50;;;;;;;;;;20833526;28;20232;-66
2023/09/28 11:36:32;;;;;;;12.57;5.03;;;;;;;;;;20832388;28;20323;-68
2023/09/28 11:46:35;;;;;;;9.23;4.70;;;;;;;;;;20854107;28;20236;-69
2023/09/28 11:56:37;;;;;;;24.47;7.20;;;;;;;;;;20894399;28;20200;-68
2023/09/28 12:06:40;;;;;;;12.10;4.77;;;;;;;;;;20837431;28;20235;-69
2023/09/28 12:16:44;;;;;;;39.83;17.77;;;;;;;;;;20847573;28;20200;-66
2023/09/28 12:26:49;;;;;;;5.37;3.50;;;;;;;;;;20912276;28;20764;-65
2023/09/28 12:36:51;;;;;;;7.50;3.60;;;;;;;;;;20857742;28;20317;-65
2023/09/28 12:46:53;;;;;;;15.73;3.60;;;;;;;;;;20827596;28;20623;-63
2023/09/28 12:56:55;;;;;;;5.40;2.77;;;;;;;;;;20826797;28;20232;-63
2023/09/28 13:06:58;;;;;;;5.77;2.73;;;;;;;;;;20841088;28;20251;-65
2023/09/28 13:17:02;;;;;;;6.60;2.93;;;;;;;;;;20853430;28;20269;-66
2023/09/28 13:27:07;;;;;;;7.23;2.43;;;;;;;;;;20842346;28;20232;-64
2023/09/28 13:37:11;;;;;;;5.17;4.60;;;;;;;;;;20841866;28;20327;-62
2023/09/28 13:47:13;;;;;;;3.70;2.50;;;;;;;;;;20840812;28;20228;-65
2023/09/28 13:57:16;;;;;;;5.20;2.30;;;;;;;;;;20839814;28;20251;-65
2023/09/28 14:07:19;;;;;;;5.75;2.78;;;;;;;;;;20839820;28;20248;-67
2023/09/28 14:17:22;;;;;;;4.20;2.83;;;;;;;;;;20837912;28;20303;-65
2023/09/28 14:27:40;;;;;;;7.88;2.97;;;;;;;;;;20841926;28;20579;-65
2023/09/28 14:37:42;;;;;;;3.95;2.50;;;;;;;;;;20841140;28;20239;-65
2023/09/28 14:47:43;;;;;;;6.63;2.50;;;19.30;99.90;;;;;;20859132;28;20240;-70
2023/09/28 14:57:45;;;;;;;5.00;3.10;;;27.30;58.00;;;;;;20828646;28;20464;-70
2023/09/28 15:07:47;;;;;;;4.65;2.70;;;27.20;70.90;;;;;;20840159;28;20228;-70
2023/09/28 15:17:49;;;;;;;4.45;3.58;;;26.30;72.10;;;;;;20869156;28;20204;-71
2023/09/28 15:27:51;;;;;;;4.28;3.38;;;26.30;70.40;;;;;;20830789;28;20634;-70
2023/09/28 15:37:52;;;;;;;7.50;2.53;;;26.00;71.80;;;;;;20832693;28;20244;-70
2023/09/28 15:47:55;;;;;;;4.47;2.60;;;25.60;70.30;;;;;;20831830;28;20751;-67
2023/09/28 15:57:57;;;;;;;5.57;2.67;;;25.20;69.70;;;;;;20831112;28;20299;-70
2023/09/28 16:07:59;;;;;;;2.80;2.33;;;;;;;;;;20830859;28;20682;-70
2023/09/28 16:18:01;;;;;;;3.10;2.70;;;24.80;69.70;;;;;;20829938;28;20760;-70
2023/09/28 16:28:04;;;;;;;10.57;3.30;;;;;;;;;;20852170;28;20232;-72
2023/09/28 16:38:06;;;;;;;9.33;3.40;;;24.30;71.10;;;;;;20895823;28;20235;-78
2023/09/28 16:48:07;;;;;;;7.33;2.80;;;23.90;72.50;;;;;;20875576;28;20232;-75
2023/09/28 16:58:10;;;;;;;5.60;3.00;;;;;;;;;;20860605;28;20656;-70
2023/09/28 17:08:12;;;;;;;5.80;2.87;;;;;;;;;;20936311;28;20465;-67
2023/09/28 17:18:14;;;;;;;6.40;3.17;;;;;;;;;;20937311;28;20229;-64
2023/09/28 17:28:24;;;;;;;11.57;3.10;;;;;;;;;;20936311;28;20242;-68
2023/09/28 17:38:26;;;;;;;9.50;3.50;;;;;;;;;;20937122;28;20262;-70
2023/09/28 17:48:29;;;;;;;14.87;3.60;;;;;;;;;;20929983;28;20581;-72
2023/09/28 17:58:31;;;;;;;13.60;3.33;;;;;;;;;;20923166;28;20657;-63
2023/09/28 18:08:33;;;;;;;10.87;3.40;;;;;;;;;;20862734;28;20725;-65
2023/09/28 18:18:37;;;;;;;9.37;4.50;;;;;;;;;;20850270;28;20235;-66
2023/09/28 18:28:41;;;;;;;8.90;4.13;;;;;;;;;;20837857;28;20317;-63
2023/09/28 18:38:44;;;;;;;8.73;3.60;;;;;;;;;;20837564;28;20212;-65
2023/09/28 18:48:54;;;;;;;6.27;3.53;;;;;;;;;;20903313;28;20599;-63
2023/09/28 18:58:57;;;;;;;7.23;3.93;;;;;;;;;;20917208;28;20212;-63
2023/09/28 19:09:00;;;;;;;8.57;3.90;;;23.60;72.50;;;;;;20917938;28;20631;-64
2023/09/28 19:19:02;;;;;;;11.10;4.28;;;;;;;;;;20913859;28;20526;-64
2023/09/28 19:29:07;;;;;;;10.53;4.70;;;;;;;;;;20915969;28;20251;-60
2023/09/28 19:39:12;;;;;;;12.20;4.07;;;20.50;81.20;;;;;;20891459;28;20319;-63
2023/09/28 19:49:14;;;;;;;9.43;4.13;;;20.10;84.80;;;;;;20851146;28;20250;-62
2023/09/28 19:59:16;;;;;;;9.07;4.20;;;20.00;85.70;;;;;;20882845;28;20257;-64
2023/09/28 20:09:17;;;;;;;5.87;4.37;;;19.80;86.50;;;;;;20867295;28;20614;-62
2023/09/28 20:19:19;;;;;;;22.17;4.07;;;19.70;87.50;;;;;;20836990;28;20706;-64
2023/09/28 20:29:21;;;;;;;7.10;4.07;;;19.60;88.30;;;;;;20829273;28;20315;-64
2023/09/28 20:39:22;;;;;;;9.53;4.20;;;19.40;89.10;;;;;;20829995;28;20224;-64
2023/09/28 20:49:24;;;;;;;16.27;4.80;;;19.20;90.30;;;;;;20896053;28;20204;-62
2023/09/28 20:59:26;;;;;;;12.20;3.83;;;19.10;90.90;;;;;;20911010;28;20323;-63
2023/09/28 21:09:28;;;;;;;7.33;3.90;;;19.00;91.70;;;;;;20843941;28;20200;-63
2023/09/28 21:19:30;;;;;;;8.27;3.87;;;18.80;92.50;;;;;;20827877;28;20591;-62
2023/09/28 21:29:31;;;;;;;11.40;4.00;;;18.70;93.40;;;;;;20839996;28;20328;-61
2023/09/28 21:39:33;;;;;;;7.90;4.20;;;18.60;94.10;;;;;;20842415;28;20241;-62
2023/09/28 21:49:35;;;;;;;10.03;4.20;;;18.40;94.70;;;;;;20841733;28;20215;-62
2023/09/28 21:59:37;;;;;;;14.13;4.90;;;18.30;95.30;;;;;;20841087;28;20246;-62
2023/09/28 22:09:38;;;;;;;9.17;3.77;;;18.20;95.80;;;;;;20840512;28;20292;-62
2023/09/28 22:19:40;;;;;;;7.17;3.93;;;18.10;96.20;;;;;;20839108;28;20240;-62
2023/09/28 22:29:42;;;;;;;9.00;4.30;;;17.90;96.70;;;;;;20836600;28;20706;-62
2023/09/28 22:39:44;;;;;;;8.37;4.33;;;17.80;97.00;;;;;;20836992;28;20266;-62
2023/09/28 22:49:46;;;;;;;5.03;4.03;;;17.70;97.40;;;;;;20837108;28;20568;-62
2023/09/28 22:59:48;;;;;;;6.43;3.90;;;17.50;97.60;;;;;;20849188;28;20233;-61
2023/09/28 23:09:50;;;;;;;6.40;4.03;;;17.50;98.00;;;;;;20835784;28;20212;-61
2023/09/28 23:19:51;;;;;;;5.40;3.67;;;17.30;98.30;;;;;;20834494;28;20239;-62
2023/09/28 23:29:53;;;;;;;11.53;4.17;;;17.20;98.50;;;;;;20833661;28;20343;-61
2023/09/28 23:39:56;;;;;;;10.17;4.20;;;17.10;98.90;;;;;;20833485;28;20225;-61
2023/09/28 23:49:58;;;;;;;6.87;4.10;;;17.00;99.10;;;;;;20844595;28;20223;-61
